createdAt,value
2018-03-23T13:12:45.860Z,240.00
2018-03-23T13:35:06.572Z,60.00
2018-03-23T13:40:39.091Z,60.00
2018-03-23T13:41:39.001Z,32.00
2018-03-23T13:42:39.024Z,80.00
2018-03-23T13:43:39.045Z,48.00
2018-03-23T13:44:39.097Z,76.00
2018-03-23T13:45:39.162Z,76.00
2018-03-23T13:46:39.056Z,36.00
2018-03-23T13:47:39.073Z,84.00
2018-03-23T13:48:39.121Z,60.00
2018-03-23T13:49:39.118Z,64.00
2018-03-23T13:50:39.219Z,44.00
2018-03-23T13:51:39.135Z,80.00
2018-03-23T13:52:39.153Z,80.00
2018-03-23T13:53:39.174Z,80.00
2018-03-23T13:54:39.305Z,80.00
2018-03-23T13:55:39.289Z,76.00
2018-03-23T13:56:18.450Z,80.00
2018-03-23T13:57:18.332Z,80.00
2018-03-23T13:58:18.364Z,76.00
2018-03-23T13:59:18.395Z,48.00
2018-03-23T14:00:18.407Z,48.00
2018-03-23T14:01:18.521Z,44.00
2018-03-23T14:02:18.419Z,80.00
2018-03-23T14:03:18.443Z,80.00
2018-03-23T14:04:18.480Z,76.00
2018-03-23T14:05:18.490Z,76.00
2018-03-23T14:06:18.595Z,76.00
2018-03-23T14:07:18.510Z,76.00
2018-03-23T14:08:56.865Z,80.00
2018-03-23T14:17:14.491Z,72.00
2018-03-23T14:18:14.372Z,48.00
2018-03-23T14:19:14.408Z,80.00
2018-03-23T14:20:14.456Z,44.00
2018-03-23T14:21:14.457Z,84.00
2018-03-23T14:22:14.617Z,44.00
2018-03-23T14:30:17.230Z,5460.00
2018-03-23T14:31:17.007Z,77056.00
2018-03-23T14:32:17.043Z,75712.00
2018-03-23T14:33:17.070Z,73568.00
2018-03-23T14:34:17.085Z,40928.00
2018-03-23T14:35:17.195Z,40096.00
2018-03-23T14:36:17.101Z,41376.00
2018-03-23T14:37:17.125Z,74720.00
2018-03-23T14:38:17.169Z,76768.00
2018-03-23T14:39:17.184Z,78208.00
2018-03-23T14:40:17.293Z,72576.00
2018-03-23T14:41:17.221Z,49248.00
2018-03-23T14:42:17.245Z,37568.00
2018-03-23T14:43:17.276Z,17372.00
2018-03-23T14:44:17.296Z,14176.00
2018-03-23T14:45:17.461Z,13640.00
2018-03-23T14:46:17.339Z,12920.00
2018-03-23T14:47:17.380Z,12276.00
2018-03-23T14:48:17.410Z,12056.00
2018-03-23T14:49:17.548Z,11848.00
2018-03-23T14:50:17.560Z,13748.00
2018-03-23T14:51:17.475Z,15704.00
2018-03-23T14:52:17.629Z,16140.00
2018-03-23T14:53:17.687Z,16652.00
2018-03-23T14:54:17.680Z,18464.00
2018-03-23T14:55:17.678Z,18016.00
2018-03-23T14:56:17.619Z,27200.00
2018-03-23T14:57:17.640Z,12212.00
2018-03-23T14:58:17.672Z,21984.00
2018-03-23T14:59:17.700Z,22528.00
2018-03-23T15:00:17.852Z,12224.00
2018-03-23T15:01:17.744Z,14168.00
2018-03-23T15:02:17.883Z,14436.00
2018-03-23T15:03:17.795Z,18176.00
2018-03-23T15:04:17.814Z,9440.00
2018-03-23T15:05:17.930Z,8956.00
2018-03-23T15:06:17.863Z,13500.00
2018-03-23T15:07:17.880Z,56416.00
2018-03-23T15:08:18.031Z,61984.00
2018-03-23T15:09:17.935Z,12284.00
2018-03-23T15:10:18.108Z,11800.00
2018-03-23T15:11:17.986Z,11872.00
2018-03-23T15:12:18.133Z,17760.00
2018-03-23T15:13:18.033Z,33088.00
2018-03-23T15:14:18.180Z,33472.00
2018-03-23T15:15:18.173Z,12816.00
2018-03-23T15:16:18.117Z,12736.00
2018-03-23T15:17:18.130Z,12612.00
2018-03-23T15:18:18.282Z,15068.00
2018-03-23T15:19:18.185Z,21280.00
2018-03-23T15:20:18.321Z,21056.00
2018-03-23T15:21:18.242Z,20576.00
2018-03-23T15:22:18.386Z,20384.00
2018-03-23T15:23:18.412Z,19648.00
2018-03-23T15:24:18.438Z,19520.00
2018-03-23T15:25:18.441Z,19488.00
2018-03-23T15:26:18.375Z,19168.00
2018-03-23T15:27:18.397Z,19008.00
2018-03-23T15:28:18.580Z,18880.00
2018-03-23T15:29:18.577Z,18688.00
2018-03-23T15:30:18.708Z,19008.00
2018-03-23T15:31:18.634Z,18816.00
2018-03-23T15:32:18.665Z,19968.00
2018-03-23T15:33:18.573Z,21856.00
2018-03-23T15:34:18.599Z,22816.00
2018-03-23T15:35:18.735Z,24128.00
2018-03-23T15:36:18.658Z,26400.00
2018-03-23T15:37:18.695Z,28192.00
2018-03-23T15:38:18.721Z,28000.00
2018-03-23T15:39:18.881Z,26752.00
2018-03-23T15:40:19.011Z,25600.00
2018-03-23T15:41:18.828Z,20832.00
2018-03-23T15:42:18.978Z,20160.00
2018-03-23T15:43:18.909Z,13684.00
2018-03-23T15:44:18.909Z,13764.00
2018-03-23T15:45:19.098Z,25888.00
2018-03-23T15:46:18.986Z,17632.00
2018-03-23T15:47:19.135Z,13916.00
2018-03-23T15:48:19.049Z,15672.00
2018-03-23T15:49:19.073Z,16076.00
2018-03-23T15:50:19.343Z,17888.00
2018-03-23T15:51:19.133Z,29760.00
2018-03-23T15:52:19.173Z,31616.00
2018-03-23T15:53:19.211Z,32576.00
2018-03-23T15:54:19.355Z,33312.00
2018-03-23T15:55:19.485Z,33120.00
2018-03-23T15:56:19.350Z,31904.00
2018-03-23T15:57:19.450Z,31136.00
2018-03-23T15:58:19.486Z,15916.00
2018-03-23T15:59:19.518Z,31456.00
2018-03-23T16:00:19.583Z,31648.00
2018-03-23T16:01:19.462Z,31040.00
2018-03-23T16:02:19.488Z,31008.00
2018-03-23T16:03:19.650Z,29696.00
2018-03-23T16:04:19.553Z,30528.00
2018-03-23T16:05:19.688Z,28992.00
2018-03-23T16:06:19.746Z,29504.00
2018-03-23T16:07:19.781Z,30048.00
2018-03-23T16:08:19.699Z,30304.00
2018-03-23T16:10:19.908Z,29824.00
2018-03-23T16:11:19.799Z,29696.00
2018-03-23T16:12:19.821Z,30592.00
2018-03-23T16:13:19.923Z,31424.00
2018-03-23T16:14:20.015Z,31744.00
2018-03-23T16:15:20.022Z,31776.00
2018-03-23T16:16:20.081Z,31040.00
2018-03-23T16:17:20.004Z,30816.00
2018-03-23T16:18:20.026Z,30432.00
2018-03-23T16:19:20.187Z,29184.00
2018-03-23T16:20:20.323Z,28160.00
2018-03-23T16:21:20.141Z,27232.00
2018-03-23T16:22:20.164Z,27296.00
2018-03-23T16:23:20.325Z,27168.00
2018-03-23T16:24:20.242Z,27008.00
2018-03-23T16:25:20.377Z,26784.00
2018-03-23T16:26:20.307Z,26560.00
2018-03-23T16:27:20.341Z,25600.00
2018-03-23T16:28:20.506Z,24256.00
2018-03-23T16:29:20.419Z,24480.00
2018-03-23T16:30:20.548Z,24640.00
2018-03-23T16:31:20.490Z,24672.00
2018-03-23T16:32:20.518Z,24096.00
2018-03-23T16:33:20.561Z,23136.00
2018-03-23T16:34:20.604Z,23104.00
2018-03-23T16:35:20.724Z,16992.00
2018-03-23T16:36:20.659Z,16736.00
2018-03-23T16:37:20.695Z,19136.00
2018-03-23T16:38:20.743Z,19616.00
2018-03-23T16:39:20.778Z,21728.00
2018-03-23T16:40:20.912Z,22144.00
2018-03-23T16:41:20.966Z,22912.00
2018-03-23T16:42:20.875Z,22528.00
2018-03-23T16:43:20.904Z,21440.00
2018-03-23T16:44:21.061Z,16928.00
2018-03-23T16:45:21.245Z,17120.00
2018-03-23T16:46:21.006Z,17824.00
2018-03-23T16:47:21.160Z,22208.00
2018-03-23T16:48:21.197Z,23872.00
2018-03-23T16:49:21.227Z,22624.00
2018-03-23T16:50:21.359Z,18592.00
2018-03-23T16:51:21.164Z,16896.00
2018-03-23T16:52:21.194Z,15380.00
2018-03-23T16:53:21.237Z,13476.00
2018-03-23T16:54:21.269Z,13372.00
2018-03-23T16:55:21.456Z,15324.00
2018-03-23T16:56:21.339Z,18592.00
2018-03-23T16:57:21.357Z,20096.00
2018-03-23T16:58:21.387Z,23264.00
2018-03-23T16:59:21.423Z,23328.00
2018-03-23T17:00:21.545Z,20768.00
2018-03-23T17:01:21.476Z,20416.00
2018-03-23T17:02:21.516Z,22112.00
2018-03-23T17:03:21.664Z,23520.00
2018-03-23T17:04:21.562Z,24096.00
2018-03-23T17:05:21.824Z,25120.00
2018-03-23T17:06:21.645Z,24736.00
2018-03-23T17:07:21.672Z,22880.00
2018-03-23T17:08:21.821Z,22688.00
2018-03-23T17:09:21.731Z,22912.00
2018-03-23T17:10:21.847Z,22656.00
2018-03-23T17:11:21.839Z,16992.00
2018-03-23T17:12:21.817Z,22144.00
2018-03-23T17:13:21.977Z,16416.00
2018-03-23T17:14:21.870Z,19328.00
2018-03-23T17:15:22.008Z,23200.00
2018-03-23T17:16:21.942Z,22304.00
2018-03-23T17:17:21.967Z,21408.00
2018-03-23T17:18:22.000Z,23040.00
2018-03-23T17:19:22.022Z,22880.00
2018-03-23T17:20:22.159Z,22880.00
2018-03-23T17:21:22.093Z,19712.00
2018-03-23T17:22:22.240Z,20928.00
2018-03-23T17:23:22.155Z,20160.00
2018-03-23T17:24:22.301Z,18144.00
2018-03-23T17:25:22.353Z,18848.00
2018-03-23T17:26:22.246Z,17984.00
2018-03-23T17:27:22.395Z,19424.00
2018-03-23T17:28:22.305Z,20736.00
2018-03-23T17:29:22.321Z,20416.00
2018-03-23T17:30:22.517Z,23520.00
2018-03-23T17:31:22.511Z,20928.00
2018-03-23T17:32:22.537Z,19904.00
2018-03-23T17:33:22.442Z,19232.00
2018-03-23T17:34:22.499Z,18720.00
2018-03-23T17:35:22.725Z,14064.00
2018-03-23T17:36:22.622Z,11780.00
2018-03-23T17:37:22.555Z,11396.00
2018-03-23T17:38:22.597Z,11576.00
2018-03-23T17:39:22.743Z,11632.00
2018-03-23T17:40:22.815Z,11000.00
2018-03-23T17:41:22.716Z,11316.00
2018-03-23T17:42:22.699Z,10952.00
2018-03-23T17:43:22.861Z,11068.00
2018-03-23T17:44:22.753Z,11448.00
2018-03-23T17:45:23.009Z,11648.00
2018-03-23T17:46:22.808Z,10756.00
2018-03-23T17:47:22.841Z,10264.00
2018-03-23T17:48:22.986Z,10332.00
2018-03-23T17:49:22.885Z,10004.00
2018-03-23T17:50:23.036Z,9848.00
2018-03-23T17:51:23.036Z,9596.00
2018-03-23T17:52:22.970Z,10224.00
2018-03-23T17:53:23.110Z,9916.00
2018-03-23T17:54:23.011Z,9268.00
2018-03-23T17:55:23.159Z,9752.00
2018-03-23T17:56:23.157Z,8348.00
2018-03-23T17:57:23.088Z,8356.00
2018-03-23T17:58:23.102Z,8512.00
2018-03-23T17:59:23.140Z,8280.00
2018-03-23T18:00:23.160Z,8032.00
2018-03-23T18:01:23.453Z,7276.00
2018-03-23T18:02:23.204Z,7752.00
2018-03-23T18:03:23.345Z,7784.00
2018-03-23T18:04:23.249Z,7756.00
2018-03-23T18:05:23.391Z,7616.00
2018-03-23T18:06:23.440Z,7784.00
2018-03-23T18:07:23.316Z,8248.00
2018-03-23T18:08:23.325Z,8024.00
2018-03-23T18:09:23.362Z,8028.00
2018-03-23T18:10:23.374Z,7744.00
2018-03-23T18:11:23.556Z,7748.00
2018-03-23T18:12:23.433Z,7800.00
2018-03-23T18:13:23.449Z,8068.00
2018-03-23T18:14:23.589Z,9244.00
2018-03-23T18:15:23.494Z,13292.00
2018-03-23T18:16:23.632Z,14556.00
2018-03-23T18:17:23.639Z,14744.00
2018-03-23T18:18:23.555Z,14232.00
2018-03-23T18:19:23.700Z,13220.00
2018-03-23T18:20:23.594Z,13508.00
2018-03-23T18:21:23.632Z,14264.00
2018-03-23T18:22:23.796Z,13596.00
2018-03-23T18:23:23.663Z,13668.00
2018-03-23T18:24:23.813Z,12232.00
2018-03-23T18:25:23.715Z,12672.00
2018-03-23T18:26:23.743Z,13940.00
2018-03-23T18:27:23.856Z,14736.00
2018-03-23T18:28:23.790Z,14720.00
2018-03-23T18:42:24.231Z,9624.00
2018-03-23T18:46:24.226Z,9344.00
2018-03-23T18:47:24.342Z,8928.00
2018-03-23T18:48:24.268Z,8008.00
2018-03-23T18:49:24.294Z,7784.00
2018-03-23T18:50:24.327Z,7996.00
2018-03-23T18:51:24.336Z,8432.00
2018-03-23T18:52:24.583Z,9184.00
2018-03-23T18:53:24.507Z,9548.00
2018-03-23T18:54:24.421Z,10260.00
2018-03-23T18:55:24.433Z,11968.00
2018-03-23T18:56:24.462Z,14004.00
2018-03-23T18:57:24.705Z,13620.00
2018-03-23T19:08:24.928Z,3776.00
2018-03-23T19:09:24.864Z,3740.00
2018-03-23T19:10:24.769Z,3852.00
2018-03-23T19:11:24.910Z,4244.00
2018-03-23T19:12:24.935Z,4024.00
2018-03-23T19:13:24.926Z,3760.00
2018-03-23T19:14:24.849Z,4300.00
2018-03-23T19:15:24.926Z,5072.00
2018-03-23T19:16:24.901Z,5448.00
2018-03-23T19:17:24.901Z,5324.00
2018-03-23T19:18:25.047Z,5512.00
2018-03-23T19:19:25.076Z,5916.00
2018-03-23T19:20:24.986Z,5188.00
2018-03-23T19:21:24.996Z,4368.00
2018-03-23T19:22:25.141Z,3796.00
2018-03-23T19:23:25.360Z,3528.00
2018-03-23T19:24:25.062Z,3296.00
2018-03-23T19:25:25.088Z,3060.00
2018-03-23T19:26:25.096Z,2944.00
2018-03-23T19:27:25.127Z,2804.00
2018-03-23T19:28:25.238Z,2584.00
2018-03-23T19:29:25.166Z,2804.00
2018-03-23T19:30:25.308Z,2768.00
2018-03-23T19:31:25.328Z,2868.00
2018-03-23T19:32:25.347Z,2768.00
2018-03-23T19:33:25.395Z,2820.00
2018-03-23T19:34:25.385Z,2820.00
2018-03-23T19:35:25.288Z,2788.00
2018-03-23T19:36:25.296Z,2600.00
2018-03-23T19:37:25.446Z,2660.00
2018-03-23T19:38:25.569Z,2340.00
2018-03-23T19:39:25.485Z,2676.00
2018-03-23T19:40:25.379Z,2884.00
2018-03-23T19:41:25.525Z,2620.00
2018-03-23T19:42:25.428Z,2592.00
2018-03-23T19:43:25.538Z,2380.00
2018-03-23T19:44:25.588Z,2684.00
2018-03-23T19:45:25.605Z,2764.00
2018-03-23T19:46:25.624Z,2352.00
2018-03-23T19:47:25.530Z,1984.00
2018-03-23T19:48:25.652Z,1744.00
2018-03-23T19:49:25.577Z,1908.00
2018-03-23T19:50:25.578Z,1736.00
2018-03-23T19:51:25.607Z,1528.00
2018-03-23T19:52:25.617Z,1504.00
2018-03-23T19:53:25.738Z,1424.00
2018-03-23T19:54:25.669Z,1252.00
2018-03-23T19:55:25.682Z,1428.00
2018-03-23T19:56:25.700Z,1688.00
2018-03-23T19:57:25.720Z,2232.00
2018-03-23T19:58:25.833Z,2228.00
2018-03-23T19:59:25.760Z,1640.00
2018-03-23T20:00:25.772Z,1384.00
2018-03-23T20:01:25.790Z,1396.00
2018-03-23T20:02:25.937Z,1424.00
2018-03-23T20:03:26.058Z,1472.00
2018-03-23T20:04:25.979Z,1600.00
2018-03-23T20:05:25.879Z,1680.00
2018-03-23T20:06:26.018Z,1600.00
2018-03-23T20:07:25.917Z,1476.00
2018-03-23T20:08:26.025Z,1256.00
2018-03-23T20:09:26.072Z,1168.00
2018-03-23T20:10:25.965Z,1204.00
2018-03-23T20:11:26.108Z,1220.00
2018-03-23T20:12:26.001Z,1220.00
2018-03-23T20:13:26.113Z,1184.00
2018-03-23T20:14:26.047Z,1304.00
2018-03-23T20:15:26.087Z,1336.00
2018-03-23T20:16:26.084Z,1268.00
2018-03-23T20:17:26.222Z,1176.00
2018-03-23T20:18:26.230Z,1216.00
2018-03-23T20:19:26.127Z,1212.00
2018-03-23T20:20:26.280Z,1072.00
2018-03-23T20:21:26.171Z,1036.00
2018-03-23T20:22:26.320Z,1056.00
2018-03-23T20:23:26.435Z,1024.00
2018-03-23T20:24:26.357Z,992.00
2018-03-23T20:25:26.376Z,956.00
2018-03-23T20:26:26.267Z,1012.00
2018-03-23T20:27:26.288Z,1048.00
2018-03-23T20:28:26.405Z,1092.00
2018-03-23T20:29:26.323Z,1160.00
2018-03-23T20:30:26.351Z,1248.00
2018-03-23T20:31:26.362Z,1236.00
2018-03-23T20:32:26.388Z,1168.00
2018-03-23T20:33:26.625Z,1048.00
2018-03-23T20:34:26.423Z,1012.00
2018-03-23T20:35:26.566Z,1048.00
2018-03-23T20:36:26.460Z,1128.00
2018-03-23T20:37:26.605Z,1176.00
2018-03-23T20:38:26.621Z,1300.00
2018-03-23T20:39:26.738Z,1332.00
2018-03-23T20:40:26.662Z,1384.00
2018-03-23T20:41:26.553Z,1264.00
2018-03-23T20:42:26.579Z,1168.00
2018-03-23T20:43:26.717Z,1032.00
2018-03-23T20:44:26.625Z,920.00
2018-03-23T20:45:26.735Z,836.00
2018-03-23T20:46:26.652Z,824.00
2018-03-23T20:47:26.792Z,776.00
2018-03-23T20:48:26.688Z,676.00
2018-03-23T20:49:26.832Z,616.00
2018-03-23T20:50:26.948Z,572.00
2018-03-23T20:51:26.870Z,540.00
2018-03-23T20:52:26.885Z,488.00
2018-03-23T20:53:26.790Z,448.00
2018-03-23T20:54:26.802Z,412.00
2018-03-23T20:55:27.095Z,404.00
2018-03-23T20:56:26.964Z,388.00
2018-03-23T20:57:26.861Z,364.00
2018-03-23T20:58:27.001Z,348.00
2018-03-23T20:59:26.896Z,316.00
2018-03-23T21:00:27.070Z,268.00
2018-03-23T21:01:26.939Z,240.00
2018-03-23T21:02:26.952Z,204.00
2018-03-23T21:03:27.095Z,176.00
2018-03-23T21:04:27.167Z,144.00
2018-03-23T21:05:27.109Z,108.00
2018-03-23T21:06:27.039Z,92.00
2018-03-23T21:07:27.172Z,76.00
2018-03-23T21:08:27.189Z,64.00
2018-03-23T21:09:27.131Z,52.00
2018-03-23T21:10:27.201Z,48.00
2018-03-23T21:11:27.245Z,44.00
2018-03-23T21:12:27.131Z,48.00
2018-03-23T21:13:27.224Z,48.00
2018-03-23T21:14:27.185Z,48.00
2018-03-23T21:15:27.365Z,48.00
2018-03-23T21:16:27.263Z,40.00
2018-03-23T21:17:27.231Z,40.00
2018-03-23T21:18:27.254Z,32.00
2018-03-23T21:19:27.338Z,24.00
2018-03-23T21:20:27.513Z,24.00
2018-03-23T21:21:27.432Z,20.00
2018-03-23T21:22:27.324Z,16.00
2018-03-23T21:23:27.468Z,12.00
2018-03-23T21:24:27.490Z,12.00
2018-03-23T21:25:27.481Z,8.00
2018-03-23T21:26:27.525Z,4.00
2018-03-23T21:27:27.418Z,4.00
2018-03-23T21:28:27.583Z,4.00
2018-03-23T21:29:27.580Z,4.00
2018-03-23T21:30:27.702Z,4.00
2018-03-23T21:31:27.618Z,0.00
2018-03-23T21:32:27.509Z,0.00
2018-03-23T21:33:27.544Z,0.00
2018-03-23T21:34:27.682Z,0.00
2018-03-23T21:35:27.795Z,0.00
2018-03-23T21:36:27.709Z,0.00
2018-03-23T21:37:27.732Z,0.00
2018-03-23T21:38:27.625Z,0.00
2018-03-23T21:39:27.674Z,0.00
2018-03-23T21:40:27.756Z,0.00
2018-03-23T21:41:27.809Z,0.00
2018-03-23T21:42:27.704Z,0.00
2018-03-23T21:43:27.725Z,0.00
2018-03-23T21:44:27.861Z,0.00
2018-03-23T21:45:27.977Z,0.00
2018-03-23T21:46:27.898Z,0.00
2018-03-23T21:47:27.794Z,0.00
2018-03-23T21:48:27.867Z,0.00
2018-03-23T21:49:27.861Z,0.00
2018-03-23T21:50:28.070Z,0.00
2018-03-23T21:51:27.901Z,0.00
2018-03-23T21:52:28.008Z,0.00
2018-03-23T21:53:27.900Z,0.00
2018-03-23T21:54:27.979Z,0.00
2018-03-23T21:56:28.180Z,0.00
2018-03-23T21:57:28.011Z,0.00
2018-03-23T21:58:28.120Z,0.00
2018-03-23T21:59:28.035Z,0.00
2018-03-23T22:00:28.020Z,0.00
2018-03-23T22:01:28.273Z,0.00
2018-03-23T22:02:28.129Z,0.00
2018-03-23T22:03:28.136Z,0.00
2018-03-23T22:04:28.242Z,0.00
2018-03-23T22:05:28.120Z,0.00
2018-03-23T22:06:28.364Z,0.00
2018-03-23T22:07:28.176Z,0.00
2018-03-23T22:08:28.300Z,0.00
2018-03-23T22:09:28.214Z,0.00
2018-03-23T22:10:28.220Z,0.00
2018-03-23T22:11:28.352Z,0.00
2018-03-23T22:12:28.374Z,0.00
2018-03-23T22:13:28.325Z,0.00
2018-03-23T22:14:28.292Z,0.00
2018-03-23T22:16:28.596Z,0.00
2018-03-23T22:17:28.355Z,0.00
2018-03-23T22:18:28.372Z,0.00
2018-03-23T22:19:28.501Z,0.00
2018-03-23T22:20:28.406Z,0.00
2018-03-23T22:21:28.569Z,0.00
2018-03-23T22:22:28.431Z,0.00
2018-03-23T22:23:28.575Z,0.00
2018-03-23T22:24:28.596Z,0.00
2018-03-23T22:25:28.490Z,0.00
2018-03-23T22:26:28.620Z,0.00
2018-03-23T22:27:28.650Z,0.00
2018-03-23T22:28:28.666Z,0.00
2018-03-23T22:29:28.686Z,0.00
2018-03-23T22:30:28.578Z,0.00
2018-03-23T22:31:28.667Z,0.00
2018-03-23T22:32:28.717Z,0.00
2018-03-23T22:33:28.760Z,0.00
2018-03-23T22:34:28.778Z,0.00
2018-03-23T22:35:28.797Z,0.00
2018-03-23T22:36:28.699Z,0.00
2018-03-23T22:37:28.718Z,0.00
2018-03-23T22:38:28.955Z,0.00
2018-03-23T22:39:28.866Z,0.00
2018-03-23T22:40:28.887Z,0.00
2018-03-23T22:41:28.781Z,0.00
2018-03-23T22:42:28.922Z,0.00
2018-03-23T22:43:29.014Z,0.00
2018-03-23T22:44:28.839Z,0.00
2018-03-23T22:45:28.849Z,0.00
2018-03-23T22:46:28.998Z,0.00
2018-03-23T22:47:28.887Z,0.00
2018-03-23T22:48:29.129Z,0.00
2018-03-23T22:49:28.920Z,0.00
2018-03-23T22:50:29.068Z,0.00
2018-03-23T22:51:28.961Z,0.00
2018-03-23T22:52:28.974Z,0.00
2018-03-23T22:53:29.224Z,0.00
2018-03-23T22:54:29.139Z,0.00
2018-03-23T22:55:29.030Z,0.00
2018-03-23T22:56:29.049Z,0.00
2018-03-23T22:57:29.073Z,0.00
2018-03-23T22:58:29.185Z,0.00
2018-03-23T22:59:29.228Z,0.00
2018-03-23T23:00:29.127Z,0.00
2018-03-23T23:01:29.268Z,0.00
2018-03-23T23:02:29.160Z,0.00
2018-03-23T23:03:29.404Z,0.00
2018-03-23T23:04:29.192Z,0.00
2018-03-23T23:05:29.337Z,0.00
2018-03-23T23:06:29.357Z,0.00
2018-03-23T23:07:29.254Z,0.00
2018-03-23T23:08:29.541Z,0.00
2018-03-23T23:09:29.292Z,0.00
2018-03-23T23:10:29.301Z,0.00
2018-03-23T23:11:29.444Z,0.00
2018-03-23T23:12:29.346Z,0.00
2018-03-23T23:13:29.634Z,0.00
2018-03-23T23:14:29.386Z,0.00
2018-03-23T23:15:29.388Z,0.00
2018-03-23T23:16:29.535Z,0.00
2018-03-23T23:17:29.556Z,0.00
2018-03-23T23:18:29.561Z,0.00
2018-03-23T23:19:29.461Z,0.00
2018-03-23T23:20:29.494Z,0.00
2018-03-23T23:21:29.626Z,0.00
2018-03-23T23:22:29.643Z,0.00
2018-03-23T23:23:29.762Z,0.00
2018-03-23T23:24:29.553Z,0.00
2018-03-23T23:25:29.570Z,0.00
2018-03-23T23:26:29.597Z,0.00
2018-03-23T23:27:29.736Z,0.00
2018-03-23T23:28:29.783Z,0.00
2018-03-23T23:29:29.656Z,0.00
2018-03-23T23:30:29.797Z,0.00
2018-03-23T23:31:29.696Z,0.00
2018-03-23T23:32:29.715Z,0.00
2018-03-23T23:33:29.716Z,0.00
2018-03-23T23:34:29.940Z,0.00
2018-03-23T23:35:29.876Z,0.00
2018-03-23T23:36:29.776Z,0.00
2018-03-23T23:37:29.911Z,0.00
2018-03-23T23:38:29.803Z,0.00
2018-03-23T23:39:29.829Z,0.00
2018-03-23T23:40:29.943Z,0.00
2018-03-23T23:41:29.873Z,0.00
2018-03-23T23:42:29.871Z,0.00
2018-03-23T23:43:29.888Z,0.00
2018-03-23T23:44:30.036Z,0.00
2018-03-23T23:45:30.088Z,0.00
2018-03-23T23:46:30.045Z,0.00
2018-03-23T23:47:29.971Z,0.00
2018-03-23T23:48:29.981Z,0.00
2018-03-23T23:49:30.009Z,0.00
2018-03-23T23:50:30.019Z,0.00
2018-03-23T23:51:30.260Z,0.00
2018-03-23T23:52:30.053Z,0.00
2018-03-23T23:53:30.077Z,0.00
2018-03-23T23:54:30.212Z,0.00
2018-03-23T23:55:30.231Z,0.00
2018-03-23T23:56:30.348Z,0.00
2018-03-23T23:57:30.152Z,0.00
2018-03-23T23:58:30.284Z,0.00
2018-03-23T23:59:30.301Z,0.00
